Time;durP1;ratioP1;P1;durP2;ratioP2;P2;SDS_P1;SDS_P2;PMS_P1;PMS_P2;Temp;Humidity;BMP_temperature;BMP_pressure;BME280_temperature;BME280_humidity;BME280_pressure;Samples;Min_cycle;Max_cycle;Signal;HPM_P1;HPM_P2
2023/06/19 00:01:23;;;;;;;4.22;3.83;;;;;;;24.36;52.63;101150.31;6246837;28;20633;-75
2023/06/19 00:04:44;;;;;;;4.22;3.67;;;;;;;24.37;52.32;101147.34;6246990;28;20240;-75
2023/06/19 00:08:06;;;;;;;5.03;3.88;;;;;;;24.34;52.56;101146.94;6243075;28;20237;-75
2023/06/19 00:11:27;;;;;;;6.07;4.32;;;;;;;24.25;52.56;101143.59;6247044;28;20244;-75
2023/06/19 00:14:50;;;;;;;3.58;3.28;;;;;;;24.26;52.69;101149.94;6241508;28;20227;-76
2023/06/19 00:18:11;;;;;;;4.55;4.10;;;;;;;24.35;52.80;101145.88;6231598;28;20235;-75
2023/06/19 00:21:38;;;;;;;3.70;3.40;;;;;;;24.23;52.74;101140.22;6259957;28;20228;-76
2023/06/19 00:25:01;;;;;;;3.88;3.58;;;;;;;24.28;52.98;101143.13;6242491;28;20239;-77
2023/06/19 00:28:22;;;;;;;4.57;4.18;;;;;;;24.15;53.14;101137.69;6245398;28;20602;-75
2023/06/19 00:31:42;;;;;;;5.65;5.15;;;;;;;24.21;53.02;101133.22;6235544;28;21026;-77
2023/06/19 00:35:07;;;;;;;5.53;3.92;;;;;;;24.26;52.90;101136.19;6229238;28;20309;-77
2023/06/19 00:38:28;;;;;;;4.38;3.97;;;;;;;24.23;53.20;101131.94;6220447;28;20228;-76
2023/06/19 00:41:52;;;;;;;4.38;4.03;;;;;;;24.32;52.76;101124.28;6232515;28;20229;-77
2023/06/19 00:45:13;;;;;;;4.30;3.90;;;;;;;24.19;53.35;101121.56;6220086;28;20683;-76
2023/06/19 00:48:35;;;;;;;4.75;4.32;;;;;;;24.18;53.16;101108.84;6230988;28;20235;-77
2023/06/19 00:51:56;;;;;;;4.50;4.00;;;;;;;24.27;53.37;101113.03;6229437;28;20232;-77
2023/06/19 00:55:18;;;;;;;3.95;3.67;;;;;;;24.13;53.44;101103.16;6207905;28;20232;-75
2023/06/19 00:58:40;;;;;;;4.43;4.07;;;;;;;23.99;53.38;101109.75;6231355;28;20252;-76
2023/06/19 01:02:03;;;;;;;4.95;4.35;;;;;;;23.92;53.99;101108.94;6248883;28;20236;-76
2023/06/19 01:05:23;;;;;;;4.13;3.83;;;;;;;23.98;53.85;101108.06;6232281;28;20236;-77
2023/06/19 01:08:53;;;;;;;4.80;4.40;;;;;;;24.00;53.68;101095.75;6236960;28;20240;-77
2023/06/19 01:12:19;;;;;;;5.20;4.75;;;;;;;24.10;53.83;101093.41;6243453;28;20234;-76
2023/06/19 01:15:43;;;;;;;4.25;3.85;;;;;;;24.14;53.32;101083.63;6236076;28;20307;-76
2023/06/19 01:19:06;;;;;;;4.63;4.30;;;;;;;24.22;53.54;101077.88;6235413;28;20224;-76
2023/06/19 01:22:30;;;;;;;4.28;3.90;;;;;;;24.22;53.20;101069.59;6230477;28;20235;-76
2023/06/19 01:25:53;;;;;;;6.15;4.43;;;;;;;24.06;53.46;101061.84;6241536;28;20243;-76
2023/06/19 01:29:14;;;;;;;5.45;4.95;;;;;;;24.11;53.57;101059.31;6246533;28;22071;-77
2023/06/19 01:32:45;;;;;;;6.40;5.00;;;;;;;23.99;54.05;101057.41;6226790;28;20304;-77
2023/06/19 01:36:08;;;;;;;4.72;4.32;;;;;;;24.03;54.02;101053.16;6242329;28;20633;-76
2023/06/19 01:39:30;;;;;;;4.65;4.25;;;;;;;23.95;53.97;101047.91;6204314;28;20231;-76
2023/06/19 01:42:54;;;;;;;5.15;4.75;;;;;;;23.80;54.24;101054.50;6251772;28;20255;-76
2023/06/19 01:46:15;;;;;;;6.00;4.70;;;;;;;23.90;54.12;101053.22;6225797;28;21029;-76
2023/06/19 01:49:36;;;;;;;4.72;4.43;;;;;;;23.89;54.75;101055.13;6230194;28;20303;-77
2023/06/19 01:52:58;;;;;;;5.45;5.00;;;;;;;23.86;54.52;101047.31;6222565;28;20231;-78
2023/06/19 01:56:20;;;;;;;5.15;4.75;;;;;;;23.90;54.14;101056.81;6217222;28;20224;-77
2023/06/19 01:59:41;;;;;;;4.88;4.53;;;;;;;23.95;54.38;101061.69;6222602;28;22134;-76
2023/06/19 02:03:02;;;;;;;4.18;3.88;;;;;;;23.94;54.11;101057.22;6235809;28;21459;-76
2023/06/19 02:06:23;;;;;;;5.63;5.13;;;;;;;23.90;54.22;101055.97;6242184;28;20235;-75
2023/06/19 02:09:45;;;;;;;4.85;4.45;;;;;;;23.88;54.62;101052.59;6250843;28;20231;-76
2023/06/19 02:13:08;;;;;;;4.38;3.97;;;;;;;23.79;54.63;101049.22;6241450;28;20259;-76
2023/06/19 02:16:28;;;;;;;5.15;4.75;;;;;;;23.65;55.01;101050.34;6229607;28;20282;-76
2023/06/19 02:19:49;;;;;;;4.50;4.20;;;;;;;23.62;55.45;101050.78;6244321;28;20235;-77
2023/06/19 02:23:12;;;;;;;4.95;4.55;;;;;;;23.69;54.94;101044.19;6226310;28;20232;-76
2023/06/19 02:26:33;;;;;;;4.95;4.55;;;;;;;23.65;55.23;101040.19;6229175;28;20228;-77
2023/06/19 02:29:55;;;;;;;4.10;3.70;;;;;;;23.63;55.25;101039.56;6244932;28;20226;-76
2023/06/19 02:33:16;;;;;;;5.50;4.35;;;;;;;23.47;55.25;101042.78;6228512;28;20232;-76
2023/06/19 02:36:37;;;;;;;4.15;3.85;;;;;;;23.21;56.25;101040.06;6247459;28;20228;-76
2023/06/19 02:39:58;;;;;;;4.55;4.15;;;;;;;23.30;56.36;101038.75;6231564;28;20227;-76
2023/06/19 02:43:19;;;;;;;4.75;4.35;;;;;;;23.54;55.96;101045.50;6221270;28;20231;-76
2023/06/19 02:46:41;;;;;;;5.70;5.20;;;;;;;23.53;55.76;101035.56;6248693;28;20236;-76
2023/06/19 02:50:05;;;;;;;4.50;4.20;;;;;;;23.64;55.49;101037.63;6210776;28;20231;-77
2023/06/19 02:53:26;;;;;;;5.22;4.80;;;;;;;23.65;55.19;101036.59;6219440;28;20458;-76
2023/06/19 02:56:47;;;;;;;4.95;4.55;;;;;;;23.50;55.85;101030.50;6235562;28;20271;-77
2023/06/19 03:00:12;;;;;;;5.03;4.57;;;;;;;23.52;55.90;101023.72;6225443;28;20235;-76
2023/06/19 03:03:37;;;;;;;5.25;4.85;;;;;;;23.64;55.54;101030.22;6239151;28;20227;-77
2023/06/19 03:06:58;;;;;;;6.03;5.50;;;;;;;23.44;55.61;101020.34;6243064;28;21139;-77
2023/06/19 03:10:19;;;;;;;5.35;4.95;;;;;;;23.41;56.31;101026.28;6215606;28;20251;-77
2023/06/19 03:13:46;;;;;;;4.80;4.47;;;;;;;23.53;56.01;101019.88;6232188;28;20770;-76
2023/06/19 03:17:07;;;;;;;4.72;4.32;;;;;;;23.60;56.26;101017.09;6236626;28;20232;-77
2023/06/19 03:20:29;;;;;;;4.40;4.05;;;;;;;23.62;55.51;101010.31;6210280;28;20303;-77
2023/06/19 03:23:52;;;;;;;5.60;5.20;;;;;;;23.45;56.15;101013.75;6226929;28;20358;-77
2023/06/19 03:27:14;;;;;;;5.32;4.90;;;;;;;23.30;56.07;101019.50;6235196;28;20700;-76
2023/06/19 03:30:35;;;;;;;6.65;5.95;;;;;;;23.38;56.29;101021.22;6203943;28;20228;-76
2023/06/19 03:33:56;;;;;;;5.85;5.35;;;;;;;23.30;56.46;101024.16;6234031;28;20232;-77
2023/06/19 03:37:20;;;;;;;7.38;6.75;;;;;;;23.34;56.51;101017.22;6236684;28;20343;-77
2023/06/19 03:40:43;;;;;;;5.32;4.93;;;;;;;23.34;56.15;101009.81;6240470;28;20233;-77
2023/06/19 03:44:06;;;;;;;4.60;4.30;;;;;;;23.43;56.47;101002.13;6230400;28;20259;-77
2023/06/19 03:47:27;;;;;;;6.20;5.70;;;;;;;23.44;55.85;100996.44;6247964;28;20259;-77
2023/06/19 03:50:48;;;;;;;6.63;6.00;;;;;;;23.60;56.02;101001.44;6217919;28;20231;-76
2023/06/19 03:54:10;;;;;;;5.60;5.10;;;;;;;23.58;55.89;100994.47;6232942;28;20329;-77
2023/06/19 03:57:31;;;;;;;7.95;5.15;;;;;;;23.56;55.76;100991.94;6251698;28;20239;-76
2023/06/19 04:00:52;;;;;;;8.63;7.82;;;;;;;23.60;56.03;100987.69;6242486;28;20251;-76
2023/06/19 04:04:13;;;;;;;6.82;6.20;;;;;;;23.53;55.55;100986.03;6224720;28;20701;-77
2023/06/19 04:07:34;;;;;;;5.55;5.15;;;;;;;23.50;55.95;100983.69;6237756;28;20770;-76
2023/06/19 04:10:56;;;;;;;6.72;6.03;;;;;;;23.58;56.02;100978.78;6244188;28;20478;-77
2023/06/19 04:14:17;;;;;;;5.07;4.63;;;;;;;23.36;55.98;100982.91;6236720;28;20239;-76
2023/06/19 04:17:38;;;;;;;4.82;4.43;;;;;;;23.46;56.33;100993.44;6241261;28;20228;-78
2023/06/19 04:20:59;;;;;;;6.22;5.63;;;;;;;23.38;56.44;100997.31;6255487;28;20232;-77
2023/06/19 04:24:20;;;;;;;6.15;5.68;;;;;;;23.38;56.80;101001.94;6232498;28;20775;-76
2023/06/19 04:27:44;;;;;;;6.72;6.13;;;;;;;23.47;56.00;100986.88;6241899;28;20228;-77
2023/06/19 04:31:05;;;;;;;6.03;5.00;;;;;;;23.44;55.82;100998.31;6242554;28;20244;-77
2023/06/19 04:34:26;;;;;;;6.03;5.43;;;;;;;23.31;56.30;100998.31;6229429;28;20228;-78
2023/06/19 04:37:48;;;;;;;6.38;5.80;;;;;;;23.23;56.29;100990.31;6221634;28;20243;-78
2023/06/19 04:41:09;;;;;;;7.22;6.60;;;;;;;23.25;56.34;100996.44;6262269;28;20540;-78
2023/06/19 04:44:33;;;;;;;6.47;5.95;;;;;;;23.31;56.54;100996.44;6228169;28;20228;-76
2023/06/19 04:47:54;;;;;;;7.25;5.93;;;;;;;23.41;56.04;100990.50;6236571;28;20231;-77
2023/06/19 04:51:15;;;;;;;6.55;5.95;;;;;;;23.39;56.56;100993.47;6242323;28;20286;-77
2023/06/19 04:54:36;;;;;;;7.20;6.50;;;;;;;23.47;56.32;100989.63;6235329;28;20227;-76
2023/06/19 04:57:57;;;;;;;6.32;5.75;;;;;;;23.45;56.68;100981.59;6221941;28;21823;-77
2023/06/19 05:01:22;;;;;;;5.53;5.03;;;;;;;23.57;56.40;100979.03;6250019;28;20319;-79
2023/06/19 05:04:43;;;;;;;5.78;5.38;;;;;;;23.59;55.97;100979.66;6232743;28;20243;-77
2023/06/19 05:08:04;;;;;;;6.15;5.55;;;;;;;23.62;56.39;100977.28;6231447;28;20255;-64
2023/06/19 05:11:25;;;;;;;7.10;5.80;;;;;;;23.59;55.76;100971.38;6224892;28;20231;-64
2023/06/19 05:14:46;;;;;;;6.63;5.95;;;;;;;23.57;56.20;100976.28;6231247;28;20239;-66
2023/06/19 05:18:08;;;;;;;5.45;5.03;;;;;;;23.59;56.03;100979.66;6236391;28;20333;-64
2023/06/19 05:21:29;;;;;;;6.72;6.13;;;;;;;23.52;55.93;100989.81;6238780;28;20239;-66
2023/06/19 05:24:50;;;;;;;5.88;5.38;;;;;;;23.54;56.14;100985.81;6223395;28;20236;-66
2023/06/19 05:28:10;;;;;;;5.07;4.68;;;;;;;23.31;56.51;100988.16;6228528;28;20240;-65
2023/06/19 05:31:31;;;;;;;6.68;6.07;;;;;;;23.48;56.81;100991.31;6242392;28;20633;-65
2023/06/19 05:34:53;;;;;;;11.25;6.95;;;;;;;23.48;56.56;100994.94;6231375;28;20252;-65
2023/06/19 05:38:15;;;;;;;5.55;5.05;;;;;;;23.48;56.62;101002.34;6232082;28;20239;-65
2023/06/19 05:41:35;;;;;;;7.50;6.80;;;;;;;23.43;56.47;101008.47;6244022;28;20231;-64
2023/06/19 05:44:56;;;;;;;7.35;6.65;;;;;;;23.49;56.21;101009.53;6236491;28;20231;-66
2023/06/19 05:48:17;;;;;;;5.22;4.82;;;;;;;23.51;56.69;101018.44;6213738;28;20251;-65
2023/06/19 05:51:39;;;;;;;5.78;5.28;;;;;;;23.56;56.34;101022.22;6243061;28;20232;-65
2023/06/19 05:55:00;;;;;;;6.43;5.72;;;;;;;23.55;56.83;101020.50;6238002;28;20255;-68
2023/06/19 05:58:21;;;;;;;6.50;5.90;;;;;;;23.47;56.57;101019.91;6236282;28;20239;-68
2023/06/19 06:01:42;;;;;;;6.18;5.68;;;;;;;23.47;56.24;101025.41;6240052;28;20232;-69
2023/06/19 06:05:03;;;;;;;6.63;6.03;;;;;;;23.46;56.11;101038.34;6238134;28;20231;-69
2023/06/19 06:08:25;;;;;;;5.75;5.25;;;;;;;23.37;57.22;101042.38;6224475;28;20232;-68
2023/06/19 06:11:46;;;;;;;6.70;6.18;;;;;;;23.36;56.98;101046.22;6241816;28;20235;-68
2023/06/19 06:15:10;;;;;;;7.15;6.45;;;;;;;23.32;56.60;101053.16;6237235;28;20231;-69
2023/06/19 06:18:30;;;;;;;8.57;6.38;;;;;;;23.14;56.79;101055.72;6234292;28;21907;-69
2023/06/19 06:21:51;;;;;;;6.60;5.47;;;;;;;23.31;57.34;101056.13;6242421;28;20227;-70
2023/06/19 06:25:15;;;;;;;13.52;6.95;;;;;;;23.17;58.65;101058.06;6240131;28;20327;-69
2023/06/19 06:28:36;;;;;;;7.88;7.07;;;;;;;23.49;58.36;101056.34;6235417;28;20228;-68
2023/06/19 06:32:04;;;;;;;10.30;7.80;;;;;;;23.47;58.87;101042.78;6234528;28;20231;-69
2023/06/19 06:35:25;;;;;;;7.80;7.07;;;;;;;23.45;59.50;101033.03;6242513;28;20621;-69
2023/06/19 06:38:46;;;;;;;6.97;5.90;;;;;;;23.48;59.21;101032.63;6219396;28;20236;-68
2023/06/19 06:42:08;;;;;;;9.20;6.57;;;;;;;23.14;59.00;101036.47;6240885;28;20228;-70
2023/06/19 06:45:29;;;;;;;8.32;7.63;;;;;;;23.28;59.71;101046.38;6234066;28;20293;-69
2023/06/19 06:48:50;;;;;;;8.57;7.53;;;;;;;23.37;59.77;101036.88;6231874;28;20586;-68
2023/06/19 06:52:11;;;;;;;8.68;7.85;;;;;;;23.36;60.66;101023.34;6227523;28;20509;-65
2023/06/19 06:55:32;;;;;;;13.07;7.70;;;;;;;23.51;60.62;101012.94;6226198;28;20579;-78
2023/06/19 06:58:54;;;;;;;7.35;6.75;;;;;;;23.45;60.68;101020.13;6226526;28;20248;-76
2023/06/19 07:02:15;;;;;;;5.88;5.38;;;;;;;23.67;61.10;101021.53;6234282;28;20251;-75
2023/06/19 07:05:36;;;;;;;6.18;5.57;;;;;;;24.07;59.59;101010.38;6248339;28;20232;-73
2023/06/19 07:08:57;;;;;;;6.13;5.65;;;;;;;24.01;60.02;101019.47;6223091;28;20257;-73
2023/06/19 07:12:18;;;;;;;6.88;6.18;;;;;;;24.05;59.48;101024.38;6240109;28;20315;-77
2023/06/19 07:15:40;;;;;;;6.50;5.55;;;;;;;24.25;59.41;101013.22;6220574;28;20232;-73
2023/06/19 07:19:01;;;;;;;6.20;5.65;;;;;;;24.11;59.66;101012.47;6242632;28;20235;-76
2023/06/19 07:22:22;;;;;;;9.32;5.85;;;;;;;24.14;59.92;101014.75;6243482;28;20866;-77
2023/06/19 07:25:42;;;;;;;7.55;6.85;;;;;;;23.97;60.38;101018.22;6231317;28;20256;-76
2023/06/19 07:29:03;;;;;;;9.10;5.90;;;;;;;23.88;60.48;101025.03;6221800;28;20224;-77
2023/06/19 07:32:26;;;;;;;7.90;7.13;;;;;;;24.20;60.18;101026.81;6237070;28;20318;-78
2023/06/19 07:35:46;;;;;;;7.53;6.32;;;;;;;24.22;59.81;101027.44;6235225;28;20223;-76
2023/06/19 07:39:07;;;;;;;7.45;6.75;;;;;;;24.31;60.21;101031.59;6245528;28;20236;-79
2023/06/19 07:42:28;;;;;;;8.10;6.10;;;;;;;24.50;59.31;101036.16;6247517;28;20653;-77
2023/06/19 07:45:49;;;;;;;9.95;7.70;;;;;;;24.57;58.80;101036.94;6232470;28;20314;-76
2023/06/19 07:49:12;;;;;;;9.48;7.60;;;;;;;24.71;58.84;101038.53;6234754;28;20224;-80
2023/06/19 07:52:33;;;;;;;7.55;6.88;;;;;;;24.85;58.18;101036.53;6241179;28;20244;-73
2023/06/19 07:55:54;;;;;;;8.52;7.75;;;;;;;24.86;58.14;101047.34;6249804;28;20259;-76
2023/06/19 07:59:16;;;;;;;8.35;7.10;;;;;;;24.91;57.92;101044.75;6236566;28;20247;-77
2023/06/19 08:02:37;;;;;;;7.32;6.72;;;;;;;24.56;57.04;101043.53;6248993;28;20231;-76
2023/06/19 08:05:59;;;;;;;7.00;6.40;;;;;;;24.82;56.38;101050.78;6248143;28;20237;-73
2023/06/19 08:09:20;;;;;;;8.57;7.82;;;;;;;24.38;55.61;101033.28;6225165;28;20231;-75
2023/06/19 08:12:42;;;;;;;40.50;8.23;;;;;;;24.51;55.39;101051.63;6242236;28;20321;-75
2023/06/19 08:16:03;;;;;;;10.77;7.75;;;;;;;24.43;55.54;101049.13;6238207;28;20250;-74
2023/06/19 08:19:24;;;;;;;6.35;5.85;;;;;;;25.29;54.77;101042.69;6212597;28;20241;-74
2023/06/19 08:22:46;;;;;;;7.65;7.05;;;;;;;25.46;54.34;101036.59;6242117;28;20535;-76
2023/06/19 08:26:08;;;;;;;7.90;6.85;;;;;;;25.60;53.70;101036.22;6241702;28;20339;-78
2023/06/19 08:29:29;;;;;;;7.95;6.68;;;;;;;25.36;54.00;101042.63;6229079;28;20232;-78
2023/06/19 08:32:49;;;;;;;8.10;7.35;;;;;;;24.92;54.38;101029.06;6225418;28;20235;-72
2023/06/19 08:36:10;;;;;;;6.85;6.35;;;;;;;25.50;54.17;101032.31;6244743;28;20239;-79
2023/06/19 08:39:33;;;;;;;8.30;7.68;;;;;;;25.16;54.41;101033.69;6224257;28;20740;-71
2023/06/19 08:42:55;;;;;;;8.75;6.82;;;;;;;25.26;54.62;101028.50;6226092;28;20236;-71
2023/06/19 08:46:18;;;;;;;7.78;7.00;;;;;;;25.88;53.79;101017.19;6228934;28;20516;-75
2023/06/19 08:49:40;;;;;;;8.82;8.00;;;;;;;26.52;51.81;101013.72;6185819;28;20241;-76
2023/06/19 08:53:01;;;;;;;7.22;6.55;;;;;;;27.19;51.46;101012.34;6233673;28;20236;-74
2023/06/19 08:56:23;;;;;;;7.82;7.18;;;;;;;26.60;51.30;101020.81;6221639;28;20227;-77
2023/06/19 08:59:50;;;;;;;6.55;5.95;;;;;;;27.14;51.69;101025.25;6212599;28;20236;-76
2023/06/19 09:03:11;;;;;;;7.15;6.55;;;;;;;27.00;51.04;101013.56;6224322;28;20366;-73
2023/06/19 09:06:32;;;;;;;8.43;7.68;;;;;;;27.33;50.94;101024.00;6201811;28;20228;-74
2023/06/19 09:09:53;;;;;;;6.93;6.22;;;;;;;26.88;52.09;101019.09;6195820;28;20229;-71
2023/06/19 09:13:17;;;;;;;9.80;7.72;;;;;;;26.81;51.71;101025.81;6218260;28;20244;-72
2023/06/19 09:16:40;;;;;;;8.00;7.07;;;;;;;26.57;52.92;101013.84;6205164;28;20327;-73
2023/06/19 09:20:01;;;;;;;8.57;7.85;;;;;;;26.38;53.04;101020.53;6228505;28;20679;-72
2023/06/19 09:23:22;;;;;;;8.38;7.68;;;;;;;26.49;53.17;101022.50;6227469;28;20264;-73
2023/06/19 09:26:46;;;;;;;6.85;6.25;;;;;;;26.93;52.11;101012.84;6216651;28;20241;-71
2023/06/19 09:30:15;;;;;;;8.75;7.85;;;;;;;27.45;52.06;101009.09;6211875;28;20472;-72
2023/06/19 09:33:38;;;;;;;6.65;6.07;;;;;;;27.96;50.78;101007.41;6223231;28;20266;-74
2023/06/19 09:36:59;;;;;;;8.00;7.22;;;;;;;27.46;51.07;101013.56;6236257;28;21183;-72
2023/06/19 09:40:20;;;;;;;9.05;8.25;;;;;;;27.76;50.55;101010.63;6213256;28;20598;-71
2023/06/19 09:43:44;;;;;;;8.48;7.65;;;;;;;27.46;51.52;101010.78;6217586;28;20880;-71
2023/06/19 09:47:23;;;;;;;7.00;6.40;;;;;;;27.01;51.72;101020.78;6231657;28;20244;-73
2023/06/19 09:50:45;;;;;;;7.57;6.97;;;;;;;26.92;52.07;101019.44;6227470;28;20267;-71
2023/06/19 09:54:06;;;;;;;8.30;7.50;;;;;;;26.62;54.01;101016.72;6225927;28;20235;-73
2023/06/19 09:57:28;;;;;;;8.02;7.30;;;;;;;27.54;52.25;101015.94;6237680;28;20235;-70
2023/06/19 10:00:50;;;;;;;8.10;7.40;;;;;;;27.97;51.41;101023.00;6225975;28;20322;-72
2023/06/19 10:04:12;;;;;;;7.28;6.57;;;;;;;27.46;51.08;101023.78;6209307;28;20289;-74
2023/06/19 10:07:35;;;;;;;7.13;6.47;;;;;;;27.84;51.30;101021.31;6230743;28;20303;-72
2023/06/19 10:10:56;;;;;;;8.52;7.72;;;;;;;27.52;50.76;101007.03;6218747;28;20228;-70
2023/06/19 10:14:18;;;;;;;8.85;8.05;;;;;;;28.07;50.22;101006.56;6220236;28;20224;-71
2023/06/19 10:17:44;;;;;;;7.07;6.45;;;;;;;28.37;49.89;101004.38;6241882;28;20232;-71
2023/06/19 10:21:16;;;;;;;6.88;6.32;;;;;;;28.56;49.52;101008.59;6236277;28;20236;-70
2023/06/19 10:24:38;;;;;;;7.15;6.65;;;;;;;27.55;50.30;101005.72;6216002;28;20231;-71
2023/06/19 10:27:59;;;;;;;7.60;6.88;;;;;;;27.57;51.15;101006.31;6227295;28;20224;-73
2023/06/19 10:31:20;;;;;;;8.20;7.50;;;;;;;27.54;50.99;101002.09;6241307;28;20228;-73
2023/06/19 10:34:47;;;;;;;8.65;6.75;;;;;;;28.50;49.57;101008.75;6233554;28;20649;-71
2023/06/19 10:38:10;;;;;;;7.63;6.65;;;;;;;28.58;49.23;101003.63;6238479;28;20231;-74
2023/06/19 10:41:31;;;;;;;8.18;7.25;;;;;;;28.41;49.16;101009.13;6241109;28;20236;-70
2023/06/19 10:45:00;;;;;;;10.18;8.57;;;;;;;27.94;49.61;101004.03;6213564;28;20886;-70
2023/06/19 10:48:22;;;;;;;8.13;7.45;;;;;;;28.13;49.84;101011.09;6203644;28;20231;-70
2023/06/19 10:51:44;;;;;;;7.43;6.82;;;;;;;28.52;49.74;101009.34;6228825;28;20236;-69
2023/06/19 10:55:07;;;;;;;7.15;6.55;;;;;;;28.83;49.09;101006.84;6221757;28;20228;-70
2023/06/19 10:58:29;;;;;;;7.20;6.50;;;;;;;29.35;48.38;101012.13;6228337;28;20359;-71
2023/06/19 11:01:50;;;;;;;8.27;7.47;;;;;;;29.87;47.27;100997.53;6233846;28;20296;-69
2023/06/19 11:05:12;;;;;;;6.88;6.30;;;;;;;30.49;46.48;101000.78;6227040;28;20545;-73
2023/06/19 11:08:33;;;;;;;7.47;6.88;;;;;;;30.34;46.41;100994.19;6208703;28;20335;-70
2023/06/19 11:11:55;;;;;;;7.03;6.32;;;;;;;30.50;46.24;100996.88;6229931;28;20242;-69
2023/06/19 11:15:16;;;;;;;10.57;7.18;;;;;;;30.33;46.38;100986.97;6228937;28;20224;-73
2023/06/19 11:18:37;;;;;;;6.85;6.22;;;;;;;29.82;45.91;100991.09;6239223;28;20231;-74
2023/06/19 11:22:00;;;;;;;8.35;7.50;;;;;;;29.39;47.07;100988.28;6249597;28;20965;-67
2023/06/19 11:25:21;;;;;;;7.28;6.68;;;;;;;29.94;46.06;100986.22;6231361;28;20235;-66
2023/06/19 11:28:48;;;;;;;7.50;6.80;;;;;;;30.33;45.92;100989.75;6231639;28;20228;-67
2023/06/19 11:32:13;;;;;;;7.95;7.25;;;;;;;30.91;43.89;100980.53;6236407;28;20232;-67
2023/06/19 11:35:36;;;;;;;8.32;6.80;;;;;;;30.35;44.64;100998.69;6221052;28;20232;-68
2023/06/19 11:38:57;;;;;;;6.13;5.53;;;;;;;30.61;44.26;101000.59;6235237;28;20600;-68
2023/06/19 11:42:19;;;;;;;7.38;6.72;;;;;;;29.79;45.50;100989.66;6211254;28;20239;-69
2023/06/19 11:45:49;;;;;;;7.50;6.93;;;;;;;28.52;47.92;101006.56;6227323;28;20235;-67
2023/06/19 11:49:12;;;;;;;7.03;6.47;;;;;;;29.45;46.56;101001.16;6230098;28;20513;-68
2023/06/19 11:52:33;;;;;;;8.43;7.72;;;;;;;30.11;46.01;100995.31;6245718;28;20219;-67
2023/06/19 11:55:54;;;;;;;6.35;5.72;;;;;;;29.93;45.91;100992.91;6247784;28;20227;-68
2023/06/19 11:59:16;;;;;;;6.82;5.65;;;;;;;29.43;46.25;100995.00;6240442;28;20259;-67
2023/06/19 12:02:38;;;;;;;5.60;5.10;;;;;;;28.86;47.39;100992.47;6246348;28;20243;-68
2023/06/19 12:05:59;;;;;;;6.68;5.60;;;;;;;29.49;45.96;100994.81;6245436;28;20223;-68
2023/06/19 12:09:20;;;;;;;6.53;5.75;;;;;;;29.23;46.26;100990.84;6238830;28;20530;-69
2023/06/19 12:12:41;;;;;;;6.68;6.07;;;;;;;28.55;47.61;100989.41;6243069;28;20220;-68
2023/06/19 12:16:01;;;;;;;5.00;4.50;;;;;;;29.15;46.97;100990.44;6234315;28;20232;-67
2023/06/19 12:19:24;;;;;;;4.95;4.45;;;;;;;29.50;46.93;100990.94;6208730;28;20228;-68
2023/06/19 12:22:45;;;;;;;5.30;4.72;;;;;;;29.01;47.55;100989.94;6238507;28;20239;-67
2023/06/19 12:26:06;;;;;;;4.70;4.18;;;;;;;29.43;47.77;100989.44;6230851;28;20603;-68
2023/06/19 12:29:27;;;;;;;5.30;4.65;;;;;;;28.71;48.15;101000.53;6216745;28;20228;-67
2023/06/19 12:32:49;;;;;;;5.10;3.92;;;;;;;29.35;47.65;100999.09;6214627;28;20236;-68
2023/06/19 12:36:13;;;;;;;5.47;4.95;;;;;;;29.56;48.05;100994.63;6233851;28;20552;-67
2023/06/19 12:39:34;;;;;;;5.68;4.65;;;;;;;30.23;47.21;101004.34;6226856;28;20228;-69
2023/06/19 12:42:55;;;;;;;4.97;4.57;;;;;;;29.32;48.66;101007.06;6224239;28;20566;-68
2023/06/19 12:46:16;;;;;;;4.20;3.80;;;;;;;29.19;49.55;101008.28;6239472;28;20251;-68
2023/06/19 12:49:37;;;;;;;7.63;4.35;;;;;;;29.84;48.87;101017.56;6210954;28;20584;-69
2023/06/19 12:53:00;;;;;;;4.15;3.45;;;;;;;29.71;48.88;101011.50;6210296;28;20251;-70
2023/06/19 12:56:20;;;;;;;4.93;4.53;;;;;;;30.16;48.22;101014.88;6236606;28;20224;-69
2023/06/19 12:59:41;;;;;;;3.88;3.47;;;;;;;29.82;48.54;101021.69;6227288;28;21031;-68
2023/06/19 13:03:02;;;;;;;4.97;4.25;;;;;;;29.77;48.61;101014.13;6230015;28;20236;-69
2023/06/19 13:06:23;;;;;;;5.60;4.53;;;;;;;30.05;48.86;101024.19;6247043;28;20231;-69
2023/06/19 13:09:45;;;;;;;4.70;4.22;;;;;;;29.53;49.30;101028.50;6226678;28;20881;-67
2023/06/19 13:13:06;;;;;;;3.65;3.35;;;;;;;29.48;49.08;101037.59;6233282;28;20290;-67
2023/06/19 13:16:27;;;;;;;4.70;4.30;;;;;;;29.27;49.43;101037.56;6232571;28;20260;-68
2023/06/19 13:19:48;;;;;;;4.00;3.55;;;;;;;30.09;48.14;101025.34;6233814;28;20764;-68
2023/06/19 13:23:09;;;;;;;4.50;3.97;;;;;;;31.16;46.69;101025.28;6219594;28;20274;-67
2023/06/19 13:26:31;;;;;;;6.95;3.92;;;;;;;29.99;47.61;101040.00;6236049;28;20607;-68
2023/06/19 13:29:55;;;;;;;3.63;3.33;;;;;;;28.72;50.21;101037.47;6238549;28;20232;-68
2023/06/19 13:33:16;;;;;;;3.75;3.45;;;;;;;28.73;50.48;101051.09;6229331;28;20235;-68
2023/06/19 13:36:36;;;;;;;4.13;3.78;;;;;;;28.86;50.73;101048.00;6241993;28;20232;-70
2023/06/19 13:39:58;;;;;;;3.88;3.55;;;;;;;29.13;50.16;101045.38;6225578;28;20228;-68
2023/06/19 13:43:23;;;;;;;5.32;4.85;;;;;;;31.43;46.39;101045.56;6216852;28;20267;-67
2023/06/19 13:46:44;;;;;;;4.78;4.38;;;;;;;32.33;44.27;101042.38;6240746;28;20270;-67
2023/06/19 13:50:07;;;;;;;4.53;4.13;;;;;;;31.76;45.25;101036.81;6242408;28;20410;-66
2023/06/19 13:53:29;;;;;;;10.07;4.53;;;;;;;31.61;46.00;101053.47;6218449;28;20689;-69
2023/06/19 13:56:51;;;;;;;4.88;4.47;;;;;;;32.33;44.70;101047.94;6242819;28;20645;-68
2023/06/19 14:00:14;;;;;;;3.42;3.22;;;;;;;32.05;45.23;101054.84;6221327;28;20614;-68
2023/06/19 14:03:38;;;;;;;3.47;3.17;;;;;;;30.72;47.48;101047.75;6221742;28;21517;-67
2023/06/19 14:07:00;;;;;;;3.60;3.30;;;;;;;30.78;47.46;101051.41;6233535;28;20282;-68
2023/06/19 14:10:21;;;;;;;4.18;3.70;;;;;;;30.42;49.29;101055.78;6223072;28;20259;-68
2023/06/19 14:13:42;;;;;;;3.80;3.50;;;;;;;30.71;48.57;101062.78;6219657;28;20559;-68
2023/06/19 14:17:05;;;;;;;3.30;3.10;;;;;;;30.96;48.27;101064.97;6231491;28;20239;-69
2023/06/19 14:20:26;;;;;;;4.45;3.13;;;;;;;30.75;48.06;101060.28;6217400;28;20231;-67
2023/06/19 14:23:46;;;;;;;4.47;4.00;;;;;;;30.52;48.61;101077.34;6231931;28;20322;-66
2023/06/19 14:27:08;;;;;;;5.35;3.92;;;;;;;30.88;48.44;101072.97;6237903;28;20931;-69
2023/06/19 14:30:29;;;;;;;5.05;4.10;;;;;;;30.46;48.83;101064.44;6245950;28;20231;-68
2023/06/19 14:33:51;;;;;;;4.25;3.42;;;;;;;29.68;50.35;101071.25;6237232;28;20235;-69
2023/06/19 14:37:12;;;;;;;4.40;3.33;;;;;;;29.23;51.71;101082.53;6247792;28;20233;-68
2023/06/19 14:40:33;;;;;;;5.30;3.63;;;;;;;29.73;51.29;101076.91;6228423;28;20251;-67
2023/06/19 14:43:55;;;;;;;3.92;3.63;;;;;;;30.63;49.51;101079.97;6232973;28;20245;-66
2023/06/19 14:47:16;;;;;;;4.32;3.92;;;;;;;31.14;48.90;101083.25;6245928;28;20563;-69
2023/06/19 14:50:38;;;;;;;3.25;2.58;;;;;;;30.89;50.81;101089.44;6235354;28;20236;-67
2023/06/19 14:53:58;;;;;;;3.25;2.47;;;;;;;30.46;52.31;101090.34;6221959;28;20229;-68
2023/06/19 14:57:19;;;;;;;3.00;2.78;;;;;;;30.41;52.92;101097.81;6245038;28;20256;-67
2023/06/19 15:00:40;;;;;;;5.15;4.53;;;;;;;29.43;54.64;101100.59;6226391;28;20256;-68
2023/06/19 15:04:01;;;;;;;4.43;2.75;;;;;;;29.07;55.72;101110.25;6233367;28;20664;-68
2023/06/19 15:07:24;;;;;;;6.40;3.67;;;;;;;28.57;56.42;101114.91;6234255;28;20228;-66
2023/06/19 15:10:45;;;;;;;4.07;3.72;;;;;;;28.58;56.67;101120.19;6224528;28;20227;-67
2023/06/19 15:14:06;;;;;;;3.60;3.35;;;;;;;28.80;56.13;101121.19;6235082;28;20267;-67
2023/06/19 15:17:27;;;;;;;3.53;3.22;;;;;;;29.46;55.01;101112.03;6240132;28;20240;-68
2023/06/19 15:20:48;;;;;;;2.65;2.45;;;;;;;29.50;54.55;101123.50;6232492;28;20583;-68
2023/06/19 15:24:10;;;;;;;3.60;3.30;;;;;;;29.31;54.71;101122.91;6233471;28;20243;-67
2023/06/19 15:27:31;;;;;;;3.60;3.30;;;;;;;29.35;55.04;101120.50;6231938;28;20690;-68
2023/06/19 15:30:52;;;;;;;3.63;3.30;;;;;;;29.25;55.17;101117.56;6225277;28;20571;-68
2023/06/19 15:34:13;;;;;;;4.70;4.30;;;;;;;29.07;55.69;101119.44;6223658;28;20260;-67
2023/06/19 15:37:34;;;;;;;5.05;4.65;;;;;;;29.08;55.44;101120.28;6233592;28;20227;-68